Time;durP1;ratioP1;P1;durP2;ratioP2;P2;SDS_P1;SDS_P2;PMS_P1;PMS_P2;Temp;Humidity;BMP_temperature;BMP_pressure;BME280_temperature;BME280_humidity;BME280_pressure;Samples;Min_cycle;Max_cycle;Signal;HPM_P1;HPM_P2
2021/12/21 00:01:59;;;;;;;;;;;-3276.70;88.40;;;;;;5133006;28;19915;-79
2021/12/21 00:04:24;;;;;;;;;;;-3276.70;88.40;;;;;;5132785;28;19929;-78
2021/12/21 00:06:50;;;;;;;;;;;-3276.70;88.50;;;;;;5115466;28;19921;-77
2021/12/21 00:09:16;;;;;;;;;;;0.00;88.60;;;;;;5133017;28;19915;-78
2021/12/21 00:11:41;;;;;;;;;;;0.00;88.50;;;;;;5134805;27;19915;-79
2021/12/21 00:19:24;;;;;;;;;;;-3276.70;88.40;;;;;;5136770;27;20286;-78
2021/12/21 00:21:57;;;;;;;;;;;-3276.60;88.40;;;;;;5136606;27;19941;-79
2021/12/21 00:24:29;;;;;;;;;;;-3276.60;88.40;;;;;;5136241;27;19921;-78
2021/12/21 00:26:55;;;;;;;;;;;-3276.60;88.50;;;;;;5118878;27;20367;-78
2021/12/21 00:29:21;;;;;;;;;;;-3276.60;88.60;;;;;;5136333;27;19915;-80
2021/12/21 00:31:47;;;;;;;;;;;-3276.60;88.60;;;;;;5135996;27;20382;-80
2021/12/21 00:34:13;;;;;;;;;;;-3276.60;88.60;;;;;;5136144;27;20397;-78
2021/12/21 00:36:38;;;;;;;;;;;-3276.60;88.80;;;;;;5136467;27;19915;-78
2021/12/21 00:39:06;;;;;;;;;;;-3276.60;89.00;;;;;;5136876;27;19965;-79
2021/12/21 00:41:32;;;;;;;;;;;-3276.60;89.10;;;;;;5136321;27;19915;-79
2021/12/21 00:43:58;;;;;;;;;;;-3276.60;89.20;;;;;;5118847;27;19930;-78
2021/12/21 00:46:25;;;;;;;;;;;-3276.60;89.20;;;;;;5136201;27;19964;-80
2021/12/21 00:48:54;;;;;;;;;;;-3276.60;89.20;;;;;;5118879;27;19919;-79
2021/12/21 00:51:21;;;;;;;;;;;-3276.50;89.20;;;;;;5136020;27;19922;-79
2021/12/21 00:53:47;;;;;;;;;;;-3276.50;89.20;;;;;;5136028;27;19944;-79
2021/12/21 00:56:13;;;;;;;;;;;-3276.50;89.20;;;;;;5136152;27;19915;-79
2021/12/21 00:58:38;;;;;;;;;;;-3276.50;89.20;;;;;;5136234;27;19915;-79
2021/12/21 01:01:06;;;;;;;;;;;-3276.50;89.20;;;;;;5119157;27;19919;-79
2021/12/21 01:03:32;;;;;;;;;;;-3276.50;89.10;;;;;;5135900;27;19915;-81
2021/12/21 01:08:41;;;;;;;;;;;-3276.50;89.30;;;;;;5135814;27;19926;-80
2021/12/21 01:11:18;;;;;;;;;;;-3276.50;89.30;;;;;;5118795;27;19971;-79
2021/12/21 01:19:08;;;;;;;;;;;-3276.50;89.00;;;;;;5136327;27;20309;-80
2021/12/21 01:21:50;;;;;;;;;;;-3276.40;88.90;;;;;;5120032;27;19915;-79
2021/12/21 01:31:52;;;;;;;;;;;-3276.40;89.00;;;;;;5135962;27;19919;-79
2021/12/21 01:34:33;;;;;;;;;;;-3276.40;88.90;;;;;;5118252;27;19920;-78
2021/12/21 01:37:06;;;;;;;;;;;-3276.40;88.90;;;;;;5135525;27;20006;-80
2021/12/21 01:42:32;;;;;;;;;;;-3276.30;88.90;;;;;;5135307;27;19915;-80
2021/12/21 01:50:23;;;;;;;;;;;-3276.20;88.80;;;;;;5134948;27;19973;-81
2021/12/21 01:52:49;;;;;;;;;;;-3276.20;88.80;;;;;;5135297;27;19962;-79
2021/12/21 01:55:15;;;;;;;;;;;-3276.10;88.90;;;;;;5135109;27;19916;-80
2021/12/21 01:57:40;;;;;;;;;;;-3276.10;89.10;;;;;;5134864;27;20279;-80
2021/12/21 02:00:07;;;;;;;;;;;-3276.00;89.30;;;;;;5117853;27;20026;-79
2021/12/21 02:02:32;;;;;;;;;;;-3276.00;89.50;;;;;;5117646;27;19990;-80
2021/12/21 02:04:58;;;;;;;;;;;-3276.00;89.70;;;;;;5117909;27;19974;-81
2021/12/21 02:07:24;;;;;;;;;;;-3275.90;89.80;;;;;;5117465;27;20009;-79
2021/12/21 02:09:50;;;;;;;;;;;-3276.00;89.80;;;;;;5134626;27;19915;-81
2021/12/21 02:12:17;;;;;;;;;;;-3276.00;90.00;;;;;;5117439;27;19923;-78
2021/12/21 02:14:47;;;;;;;;;;;-3276.00;90.00;;;;;;5117355;27;19923;-79
2021/12/21 02:20:08;;;;;;;;;;;-3275.90;89.90;;;;;;5134734;27;19938;-80
2021/12/21 02:22:37;;;;;;;;;;;-3275.90;90.00;;;;;;5117790;27;19915;-79
2021/12/21 02:25:32;;;;;;;;;;;-3276.00;89.90;;;;;;5118262;27;19923;-80
2021/12/21 02:27:58;;;;;;;;;;;-3275.90;89.70;;;;;;5134158;27;19920;-79
2021/12/21 02:30:24;;;;;;;;;;;-3275.80;89.70;;;;;;5134568;27;20369;-80
2021/12/21 02:32:50;;;;;;;;;;;-3275.80;89.80;;;;;;5134685;27;19915;-81
2021/12/21 02:35:16;;;;;;;;;;;-3275.80;89.90;;;;;;5134336;27;20267;-81
2021/12/21 02:37:41;;;;;;;;;;;-3275.80;90.00;;;;;;5134168;27;19915;-80
2021/12/21 02:40:08;;;;;;;;;;;-3275.80;89.90;;;;;;5117017;27;19921;-79
2021/12/21 02:42:33;;;;;;;;;;;-3275.80;90.00;;;;;;5134173;27;19951;-78
2021/12/21 02:44:59;;;;;;;;;;;-3275.80;90.00;;;;;;5134230;27;19969;-80
2021/12/21 02:47:24;;;;;;;;;;;-3275.80;89.90;;;;;;5134216;27;20290;-79
2021/12/21 02:49:50;;;;;;;;;;;-3275.80;89.80;;;;;;5100125;27;19916;-78
2021/12/21 02:52:15;;;;;;;;;;;-3275.80;89.80;;;;;;5134309;27;19938;-80
2021/12/21 02:54:41;;;;;;;;;;;-3275.80;89.90;;;;;;5133826;27;20386;-80
2021/12/21 02:57:07;;;;;;;;;;;-3275.80;89.80;;;;;;5133828;27;20006;-79
2021/12/21 02:59:32;;;;;;;;;;;-3275.70;89.70;;;;;;5117181;27;19923;-79
2021/12/21 03:01:58;;;;;;;;;;;-3275.60;89.60;;;;;;5133922;27;20449;-79
2021/12/21 03:04:24;;;;;;;;;;;-3275.60;89.70;;;;;;5133743;27;19915;-80
2021/12/21 03:09:39;;;;;;;;;;;-3275.50;90.00;;;;;;5133640;27;19964;-80
2021/12/21 03:12:27;;;;;;;;;;;-3275.50;90.10;;;;;;5116261;28;19916;-78
2021/12/21 03:14:53;;;;;;;;;;;-3275.50;90.30;;;;;;5116154;28;19960;-81
2021/12/21 03:17:19;;;;;;;;;;;-3275.50;90.30;;;;;;5116215;28;19916;-79
2021/12/21 03:19:45;;;;;;;;;;;-3275.50;90.40;;;;;;5133219;28;19916;-80
2021/12/21 03:22:11;;;;;;;;;;;-3275.50;90.40;;;;;;5133963;28;19937;-79
2021/12/21 03:24:37;;;;;;;;;;;-3275.50;90.40;;;;;;5116240;28;20417;-78
2021/12/21 03:27:03;;;;;;;;;;;-3275.50;90.50;;;;;;5116311;28;21864;-81
2021/12/21 03:29:29;;;;;;;;;;;-3275.50;90.60;;;;;;5116366;28;19971;-78
2021/12/21 03:31:55;;;;;;;;;;;-3275.50;90.60;;;;;;5134090;28;19916;-82
2021/12/21 03:34:20;;;;;;;;;;;-3275.50;90.60;;;;;;5133529;28;19915;-79
2021/12/21 03:36:46;;;;;;;;;;;-3275.50;90.60;;;;;;5133475;28;19915;-81
2021/12/21 03:39:17;;;;;;;;;;;-3275.60;90.60;;;;;;5133483;28;19960;-79
2021/12/21 03:41:47;;;;;;;;;;;-3275.50;90.60;;;;;;5116673;28;19976;-79
2021/12/21 03:44:13;;;;;;;;;;;-3275.50;90.60;;;;;;5133371;28;20510;-81
2021/12/21 03:46:46;;;;;;;;;;;-3275.50;90.70;;;;;;5117996;27;19915;-80
2021/12/21 03:51:55;;;;;;;;;;;-3275.50;90.60;;;;;;5137518;27;19922;-80
2021/12/21 03:54:21;;;;;;;;;;;-3275.50;90.60;;;;;;5137592;27;20278;-80
2021/12/21 03:56:49;;;;;;;;;;;-3275.50;90.60;;;;;;5137405;27;19966;-79
2021/12/21 03:59:15;;;;;;;;;;;-3275.50;90.60;;;;;;5120112;27;20002;-81
2021/12/21 04:01:41;;;;;;;;;;;-3275.60;90.80;;;;;;5136808;27;19962;-79
2021/12/21 04:04:08;;;;;;;;;;;-3275.60;90.80;;;;;;5137120;27;19916;-80
2021/12/21 04:06:34;;;;;;;;;;;-3275.60;90.90;;;;;;5137066;27;19915;-81
2021/12/21 04:09:00;;;;;;;;;;;-3275.60;91.10;;;;;;5137100;27;19977;-80
2021/12/21 04:11:26;;;;;;;;;;;-3275.60;91.10;;;;;;5136919;27;19916;-79
2021/12/21 04:13:51;;;;;;;;;;;-3275.50;91.10;;;;;;5137118;27;19915;-79
2021/12/21 04:16:17;;;;;;;;;;;-3275.50;91.00;;;;;;5120189;27;19915;-78
2021/12/21 04:18:43;;;;;;;;;;;-3275.60;91.00;;;;;;5137396;27;19937;-79
2021/12/21 04:21:11;;;;;;;;;;;-3275.60;91.10;;;;;;5137048;27;20282;-80
2021/12/21 04:23:37;;;;;;;;;;;-3275.60;91.10;;;;;;5119661;27;20370;-79
2021/12/21 04:26:03;;;;;;;;;;;-3275.60;91.10;;;;;;5119824;27;19921;-79
2021/12/21 04:28:28;;;;;;;;;;;-3275.60;91.00;;;;;;5119723;27;20006;-79
2021/12/21 04:30:54;;;;;;;;;;;-3275.60;90.90;;;;;;5137039;27;19915;-79
2021/12/21 04:33:20;;;;;;;;;;;-3275.60;90.80;;;;;;5136774;27;20294;-81
2021/12/21 04:35:45;;;;;;;;;;;-3275.50;90.60;;;;;;5119501;27;19916;-78
2021/12/21 04:38:21;;;;;;;;;;;-3275.50;90.50;;;;;;5120185;27;20005;-80
2021/12/21 04:40:54;;;;;;;;;;;-3275.50;90.60;;;;;;5121214;27;19916;-79
2021/12/21 04:43:20;;;;;;;;;;;-3275.40;90.80;;;;;;5120369;27;20304;-78
2021/12/21 04:45:46;;;;;;;;;;;-3275.40;90.70;;;;;;5102166;27;19998;-81
2021/12/21 04:48:12;;;;;;;;;;;-3275.30;90.70;;;;;;5136377;27;19943;-79
2021/12/21 04:50:37;;;;;;;;;;;-3275.30;90.80;;;;;;5119223;27;19968;-80
2021/12/21 04:53:03;;;;;;;;;;;-3275.30;90.90;;;;;;5119510;27;19922;-79
2021/12/21 04:55:28;;;;;;;;;;;-3275.30;90.90;;;;;;5119622;27;19922;-79
2021/12/21 04:57:54;;;;;;;;;;;-3275.30;91.00;;;;;;5135835;27;19915;-77
2021/12/21 05:00:19;;;;;;;;;;;-3275.30;91.00;;;;;;5118963;27;20354;-76
2021/12/21 05:02:45;;;;;;;;;;;-3275.30;91.00;;;;;;5136417;27;19937;-77
2021/12/21 05:05:11;;;;;;;;;;;-3275.30;91.00;;;;;;5136329;27;20340;-77
2021/12/21 05:07:39;;;;;;;;;;;-3275.30;90.90;;;;;;5119108;27;20267;-76
2021/12/21 05:10:08;;;;;;;;;;;-3275.30;90.80;;;;;;5136061;27;19923;-77
2021/12/21 05:12:35;;;;;;;;;;;-3275.30;90.80;;;;;;5135882;27;19964;-77
2021/12/21 05:15:00;;;;;;;;;;;-3275.20;90.80;;;;;;5118880;27;19958;-78
2021/12/21 05:17:26;;;;;;;;;;;-3275.30;90.80;;;;;;5135772;27;19915;-76
2021/12/21 05:19:52;;;;;;;;;;;-3275.20;90.70;;;;;;5135781;27;19915;-76
2021/12/21 05:22:17;;;;;;;;;;;-3275.20;90.60;;;;;;5136140;27;20267;-77
2021/12/21 05:24:43;;;;;;;;;;;-3275.20;90.70;;;;;;5135539;27;19938;-76
2021/12/21 05:27:09;;;;;;;;;;;-3275.10;90.50;;;;;;5118797;27;20023;-77
2021/12/21 05:29:35;;;;;;;;;;;-3275.10;90.80;;;;;;5135702;27;20315;-77
2021/12/21 05:32:01;;;;;;;;;;;-3275.20;90.90;;;;;;5135936;27;19915;-80
2021/12/21 05:34:27;;;;;;;;;;;-3275.20;90.90;;;;;;5118436;27;19938;-80
2021/12/21 05:36:53;;;;;;;;;;;-3275.20;90.90;;;;;;5135607;27;19922;-77
2021/12/21 05:39:23;;;;;;;;;;;-3275.20;91.00;;;;;;5118055;27;19919;-76
2021/12/21 05:41:51;;;;;;;;;;;-3275.20;91.00;;;;;;5135627;27;19923;-78
2021/12/21 05:44:17;;;;;;;;;;;-3275.30;91.10;;;;;;5135356;27;19923;-77
2021/12/21 05:46:43;;;;;;;;;;;-3275.30;91.00;;;;;;5135399;27;19915;-79
2021/12/21 05:49:09;;;;;;;;;;;-3275.20;90.90;;;;;;5117765;27;19944;-76
2021/12/21 05:51:34;;;;;;;;;;;-3275.20;91.00;;;;;;5135378;27;19938;-77
2021/12/21 05:54:00;;;;;;;;;;;-3275.20;90.90;;;;;;5135014;27;19920;-79
2021/12/21 05:56:25;;;;;;;;;;;-3275.20;90.90;;;;;;5118457;27;19915;-80
2021/12/21 05:58:51;;;;;;;;;;;-3275.20;91.00;;;;;;5134811;27;20332;-76
2021/12/21 06:01:16;;;;;;;;;;;-3275.20;91.10;;;;;;5118050;27;19915;-77
2021/12/21 06:03:43;;;;;;;;;;;-3275.20;91.10;;;;;;5117798;27;20294;-78
2021/12/21 06:06:13;;;;;;;;;;;-3275.20;91.10;;;;;;5134822;27;19998;-78
2021/12/21 06:08:40;;;;;;;;;;;-3275.20;91.20;;;;;;5134263;27;19919;-77
2021/12/21 06:11:07;;;;;;;;;;;-3275.20;91.10;;;;;;5134585;27;19919;-77
2021/12/21 06:26:27;;;;;;;;;;;-3275.10;90.80;;;;;;5133394;27;19958;-78
2021/12/21 06:28:53;;;;;;;;;;;-3275.00;90.90;;;;;;5116126;27;20019;-79
2021/12/21 06:31:19;;;;;;;;;;;-3275.00;91.10;;;;;;5133956;27;19915;-77
2021/12/21 06:33:45;;;;;;;;;;;-3275.00;91.00;;;;;;5116667;27;19921;-80
2021/12/21 06:36:10;;;;;;;;;;;-3275.00;91.10;;;;;;5133956;27;19922;-77
2021/12/21 06:38:36;;;;;;;;;;;-3274.90;91.20;;;;;;5116811;27;19932;-79
2021/12/21 06:41:02;;;;;;;;;;;-3274.90;91.40;;;;;;5116677;27;19915;-78
2021/12/21 06:43:28;;;;;;;;;;;-3274.90;91.40;;;;;;5133767;27;19984;-80
2021/12/21 06:53:33;;;;;;;;;;;-3275.00;91.90;;;;;;5133751;27;19921;-78
2021/12/21 06:55:59;;;;;;;;;;;-3275.00;92.00;;;;;;5116309;27;19955;-79
2021/12/21 06:58:25;;;;;;;;;;;-3275.00;91.90;;;;;;5133384;27;19969;-78
2021/12/21 07:00:52;;;;;;;;;;;-3275.10;92.00;;;;;;5133502;27;19953;-79
2021/12/21 07:03:18;;;;;;;;;;;-3275.00;91.90;;;;;;5133310;27;19973;-79
2021/12/21 07:05:45;;;;;;;;;;;-3275.10;91.80;;;;;;5133211;27;19951;-78
2021/12/21 07:08:14;;;;;;;;;;;-3275.00;91.70;;;;;;5133116;27;19923;-80
2021/12/21 07:10:41;;;;;;;;;;;-3275.00;91.70;;;;;;5133036;27;19915;-77
2021/12/21 07:18:35;;;;;;;;;;;-3275.00;91.20;;;;;;5133137;28;19968;-79
2021/12/21 07:21:01;;;;;;;;;;;-3274.90;91.20;;;;;;5116444;27;19923;-80
2021/12/21 07:23:27;;;;;;;;;;;-3274.90;91.10;;;;;;5120495;27;19915;-79
2021/12/21 07:25:53;;;;;;;;;;;-3274.90;91.30;;;;;;5137342;27;19954;-79
2021/12/21 07:28:19;;;;;;;;;;;-3274.80;91.50;;;;;;5137204;27;19977;-80
2021/12/21 07:30:47;;;;;;;;;;;-3274.80;91.50;;;;;;5119942;27;19923;-81
2021/12/21 07:33:13;;;;;;;;;;;-3274.80;91.40;;;;;;5137279;27;19915;-79
2021/12/21 07:35:39;;;;;;;;;;;-3274.80;91.50;;;;;;5137161;27;19953;-79
2021/12/21 07:38:04;;;;;;;;;;;-3274.80;91.60;;;;;;5119878;27;19919;-80
2021/12/21 07:40:30;;;;;;;;;;;-3274.80;91.60;;;;;;5120038;27;19915;-79
2021/12/21 07:42:56;;;;;;;;;;;-3274.70;91.50;;;;;;5136816;27;19915;-79
2021/12/21 07:45:21;;;;;;;;;;;-3274.70;91.60;;;;;;5119428;27;19920;-79
2021/12/21 07:47:47;;;;;;;;;;;-3274.80;91.60;;;;;;5119562;27;19926;-79
2021/12/21 07:50:13;;;;;;;;;;;-3274.80;91.70;;;;;;5136751;27;19915;-79
2021/12/21 07:52:39;;;;;;;;;;;-3274.80;91.90;;;;;;5136724;27;19915;-79
2021/12/21 07:55:05;;;;;;;;;;;-3274.90;92.20;;;;;;5119785;27;19984;-80
2021/12/21 07:57:31;;;;;;;;;;;-3274.90;92.20;;;;;;5119979;27;20332;-81
2021/12/21 07:59:57;;;;;;;;;;;-3274.80;92.00;;;;;;5136923;27;19915;-83
2021/12/21 08:02:25;;;;;;;;;;;-3274.90;92.20;;;;;;5136650;27;19915;-80
2021/12/21 08:04:52;;;;;;;;;;;-3274.90;92.30;;;;;;5119821;27;20252;-80
2021/12/21 08:07:22;;;;;;;;;;;-3274.90;92.30;;;;;;5119659;27;20525;-81
2021/12/21 08:09:51;;;;;;;;;;;-3275.00;92.60;;;;;;5136553;27;20002;-79
2021/12/21 08:12:17;;;;;;;;;;;-3275.00;92.50;;;;;;5119566;27;20324;-81
2021/12/21 08:14:44;;;;;;;;;;;-3275.00;92.40;;;;;;5136484;27;19919;-82
2021/12/21 08:17:09;;;;;;;;;;;-3275.00;92.40;;;;;;5136693;27;19915;-79
2021/12/21 08:19:35;;;;;;;;;;;-3275.00;92.50;;;;;;5136329;27;20381;-81
2021/12/21 08:22:01;;;;;;;;;;;-3275.00;92.30;;;;;;5136217;27;20011;-81
2021/12/21 08:24:26;;;;;;;;;;;-3275.10;92.50;;;;;;5119128;27;19916;-80
2021/12/21 08:26:52;;;;;;;;;;;-3275.10;92.30;;;;;;5102355;27;20256;-81
2021/12/21 08:29:18;;;;;;;;;;;-3275.10;92.40;;;;;;5118962;27;19934;-81
2021/12/21 08:31:43;;;;;;;;;;;-3275.10;92.50;;;;;;5118378;27;20264;-80
2021/12/21 08:34:12;;;;;;;;;;;-3275.20;92.60;;;;;;5118859;27;19923;-81
2021/12/21 08:36:38;;;;;;;;;;;-3275.20;92.90;;;;;;5135990;27;19919;-82
2021/12/21 08:39:04;;;;;;;;;;;-3275.30;93.10;;;;;;5135995;27;19921;-81
2021/12/21 08:41:30;;;;;;;;;;;-3275.30;93.10;;;;;;5135847;27;20002;-80
2021/12/21 08:43:57;;;;;;;;;;;-3275.30;93.00;;;;;;5135536;27;20050;-80
2021/12/21 08:46:22;;;;;;;;;;;-3275.30;93.10;;;;;;5118771;27;20010;-80
2021/12/21 08:48:48;;;;;;;;;;;-3275.40;93.20;;;;;;5135712;27;20017;-79
2021/12/21 08:51:14;;;;;;;;;;;-3275.40;93.10;;;;;;5135671;27;19915;-80
2021/12/21 08:53:42;;;;;;;;;;;-3275.50;93.10;;;;;;5135865;27;19923;-80
2021/12/21 08:56:08;;;;;;;;;;;-3275.50;93.00;;;;;;5118719;27;19920;-80
2021/12/21 08:58:34;;;;;;;;;;;-3275.50;92.90;;;;;;5118491;27;19916;-80
2021/12/21 09:01:00;;;;;;;;;;;-3275.50;92.90;;;;;;5118902;27;20292;-80
2021/12/21 09:03:25;;;;;;;;;;;-3275.50;93.00;;;;;;5118360;27;19922;-80
2021/12/21 09:05:52;;;;;;;;;;;-3275.50;92.90;;;;;;5109621;27;19923;-81
2021/12/21 09:08:18;;;;;;;;;;;-3275.50;92.90;;;;;;5105108;27;20386;-80
2021/12/21 09:10:44;;;;;;;;;;;-3275.50;93.00;;;;;;5104869;27;20290;-80
2021/12/21 09:13:10;;;;;;;;;;;-3275.60;92.90;;;;;;5099031;27;20071;-80
2021/12/21 09:15:37;;;;;;;;;;;-3275.60;92.80;;;;;;5102155;27;19915;-81
2021/12/21 09:18:02;;;;;;;;;;;-3275.60;92.90;;;;;;5100526;27;19975;-80
2021/12/21 09:20:29;;;;;;;;;;;-3275.60;92.90;;;;;;5121908;27;20007;-80
2021/12/21 09:22:55;;;;;;;;;;;-3275.60;93.00;;;;;;5118237;27;19924;-80
2021/12/21 09:25:20;;;;;;;;;;;-3275.80;93.70;;;;;;5117492;27;19924;-82
2021/12/21 09:27:46;;;;;;;;;;;-3275.90;93.60;;;;;;5100297;27;19924;-79
2021/12/21 09:30:13;;;;;;;;;;;-3276.00;93.60;;;;;;5085220;27;19959;-81
2021/12/21 09:32:39;;;;;;;;;;;-3276.00;93.70;;;;;;5118410;27;19915;-81
2021/12/21 09:35:05;;;;;;;;;;;-3276.10;93.60;;;;;;5099134;27;19923;-80
2021/12/21 09:37:40;;;;;;;;;;;-3276.20;93.70;;;;;;5099333;27;19923;-81
2021/12/21 09:40:07;;;;;;;;;;;-3276.30;93.80;;;;;;5118104;27;19920;-79
2021/12/21 09:42:33;;;;;;;;;;;-3276.30;93.60;;;;;;5121771;27;19920;-78
2021/12/21 09:44:59;;;;;;;;;;;-3276.40;93.80;;;;;;5125147;27;19972;-81
2021/12/21 09:47:32;;;;;;;;;;;-3276.50;94.00;;;;;;5098027;27;19927;-80
2021/12/21 09:50:00;;;;;;;;;;;-3276.60;94.00;;;;;;5098123;27;20170;-80
2021/12/21 09:52:30;;;;;;;;;;;-3276.70;93.90;;;;;;5119412;27;19923;-81
2021/12/21 09:54:59;;;;;;;;;;;-3276.70;93.80;;;;;;5119394;27;19948;-82
2021/12/21 09:57:25;;;;;;;;;;;0.00;93.90;;;;;;5085982;27;19981;-81
2021/12/21 09:59:51;;;;;;;;;;;0.10;93.70;;;;;;5120576;27;19923;-81
2021/12/21 10:02:21;;;;;;;;;;;0.10;93.60;;;;;;5119480;27;20324;-80
2021/12/21 10:04:48;;;;;;;;;;;0.20;93.30;;;;;;5118047;27;19923;-79
2021/12/21 10:07:14;;;;;;;;;;;0.20;93.20;;;;;;5114642;27;19916;-79
2021/12/21 10:09:43;;;;;;;;;;;0.30;92.80;;;;;;5102923;27;20396;-78
2021/12/21 10:12:26;;;;;;;;;;;0.40;91.80;;;;;;5117740;27;20300;-79
2021/12/21 10:15:21;;;;;;;;;;;0.50;91.60;;;;;;5116246;27;19930;-79
2021/12/21 10:17:48;;;;;;;;;;;0.60;91.20;;;;;;5098758;27;19972;-80
2021/12/21 10:20:15;;;;;;;;;;;0.60;91.00;;;;;;5120184;27;20017;-80
2021/12/21 10:22:49;;;;;;;;;;;0.80;91.20;;;;;;5117968;27;19966;-81
2021/12/21 10:25:14;;;;;;;;;;;0.80;91.30;;;;;;5100669;27;19915;-78
2021/12/21 10:27:44;;;;;;;;;;;0.90;91.20;;;;;;5100323;27;19927;-77
2021/12/21 10:30:09;;;;;;;;;;;1.00;91.50;;;;;;5115724;27;19915;-79
2021/12/21 10:32:35;;;;;;;;;;;1.10;90.90;;;;;;5123475;27;19988;-78
2021/12/21 10:35:03;;;;;;;;;;;1.10;90.90;;;;;;5100327;27;19930;-78
2021/12/21 10:37:37;;;;;;;;;;;1.20;90.40;;;;;;5114567;27;20430;-80
2021/12/21 10:40:06;;;;;;;;;;;1.30;90.80;;;;;;5114476;27;20022;-80
2021/12/21 10:42:31;;;;;;;;;;;1.40;90.70;;;;;;5115141;27;19957;-79
2021/12/21 10:45:04;;;;;;;;;;;1.50;90.80;;;;;;5104789;27;19927;-77
2021/12/21 10:47:30;;;;;;;;;;;1.60;90.50;;;;;;5113536;27;19950;-79
2021/12/21 10:49:56;;;;;;;;;;;1.70;90.70;;;;;;5096624;27;20556;-78
2021/12/21 10:52:21;;;;;;;;;;;1.80;90.60;;;;;;5102384;27;19924;-78
2021/12/21 10:54:48;;;;;;;;;;;1.90;90.80;;;;;;5080645;27;20359;-78
2021/12/21 10:57:19;;;;;;;;;;;2.00;90.40;;;;;;5117495;27;19919;-80
2021/12/21 10:59:46;;;;;;;;;;;2.10;90.40;;;;;;5116277;27;19920;-80
2021/12/21 11:02:14;;;;;;;;;;;2.10;89.70;;;;;;5119886;27;20286;-80
2021/12/21 11:04:41;;;;;;;;;;;2.20;89.60;;;;;;5116074;27;20014;-81
2021/12/21 11:07:19;;;;;;;;;;;2.30;89.60;;;;;;5115550;27;19920;-80
2021/12/21 11:09:54;;;;;;;;;;;2.30;89.20;;;;;;5100140;28;19927;-81
2021/12/21 11:12:19;;;;;;;;;;;2.50;89.20;;;;;;5099294;28;19920;-80
2021/12/21 11:14:45;;;;;;;;;;;2.60;89.10;;;;;;5115621;27;19916;-80
2021/12/21 11:17:11;;;;;;;;;;;2.70;89.00;;;;;;5095833;28;20371;-81
2021/12/21 11:19:37;;;;;;;;;;;2.80;88.40;;;;;;5083443;28;19915;-79
2021/12/21 11:22:03;;;;;;;;;;;3.00;87.70;;;;;;5105448;28;19934;-79
2021/12/21 11:24:30;;;;;;;;;;;3.10;88.00;;;;;;5085121;28;20043;-81
2021/12/21 11:26:56;;;;;;;;;;;3.10;86.30;;;;;;5116349;28;19929;-82
2021/12/21 11:29:22;;;;;;;;;;;3.20;86.70;;;;;;5099181;28;19927;-79
2021/12/21 11:31:49;;;;;;;;;;;3.30;86.40;;;;;;5101854;28;19966;-80
2021/12/21 11:34:19;;;;;;;;;;;3.50;86.40;;;;;;5100751;28;19924;-80
2021/12/21 11:39:31;;;;;;;;;;;3.70;85.90;;;;;;5114268;28;19930;-82
2021/12/21 11:41:58;;;;;;;;;;;3.80;86.30;;;;;;5117277;28;20661;-80
2021/12/21 11:44:29;;;;;;;;;;;4.00;85.20;;;;;;5082975;28;20367;-79
2021/12/21 11:46:58;;;;;;;;;;;4.00;83.70;;;;;;5116941;28;19924;-81
2021/12/21 11:49:26;;;;;;;;;;;4.10;84.00;;;;;;5100961;28;19927;-81
2021/12/21 11:51:52;;;;;;;;;;;4.30;84.80;;;;;;5102325;28;19924;-81
2021/12/21 11:54:19;;;;;;;;;;;4.60;84.80;;;;;;5100502;28;20362;-78
2021/12/21 11:56:44;;;;;;;;;;;4.60;85.00;;;;;;5101015;28;19931;-79
2021/12/21 11:59:10;;;;;;;;;;;4.70;83.90;;;;;;5118251;28;19916;-80
2021/12/21 12:01:36;;;;;;;;;;;4.80;83.70;;;;;;5117770;28;19938;-81
2021/12/21 12:04:03;;;;;;;;;;;4.90;82.60;;;;;;5098235;28;20364;-81
2021/12/21 12:06:42;;;;;;;;;;;5.10;79.30;;;;;;5100084;27;19943;-81
2021/12/21 12:09:07;;;;;;;;;;;5.00;77.70;;;;;;5122192;27;19967;-82
2021/12/21 12:11:37;;;;;;;;;;;5.10;78.90;;;;;;5099523;27;19954;-82
2021/12/21 12:14:13;;;;;;;;;;;5.20;78.50;;;;;;5100191;27;20386;-81
2021/12/21 12:17:01;;;;;;;;;;;5.40;80.10;;;;;;5106637;27;20263;-83
2021/12/21 12:19:30;;;;;;;;;;;5.50;76.50;;;;;;5121837;27;19935;-83
2021/12/21 12:21:57;;;;;;;;;;;5.70;76.30;;;;;;5121211;27;19927;-82
2021/12/21 12:24:24;;;;;;;;;;;6.00;78.00;;;;;;5119770;27;21054;-83
2021/12/21 12:27:16;;;;;;;;;;;6.20;78.40;;;;;;5119913;27;19927;-81
2021/12/21 12:29:46;;;;;;;;;;;6.40;76.20;;;;;;5105708;27;19933;-83
2021/12/21 12:32:13;;;;;;;;;;;6.60;76.70;;;;;;5118281;27;20018;-79
2021/12/21 12:34:39;;;;;;;;;;;6.60;73.60;;;;;;5099803;27;19926;-81
2021/12/21 12:37:16;;;;;;;;;;;6.60;72.00;;;;;;5105484;27;20392;-80
2021/12/21 12:39:43;;;;;;;;;;;6.80;74.10;;;;;;5101773;27;20356;-80
2021/12/21 12:42:10;;;;;;;;;;;6.70;69.70;;;;;;5103295;27;20327;-82
2021/12/21 12:44:37;;;;;;;;;;;6.70;71.50;;;;;;5123016;27;19934;-80
2021/12/21 12:47:04;;;;;;;;;;;7.00;75.00;;;;;;5116278;27;20531;-80
2021/12/21 12:49:31;;;;;;;;;;;6.90;70.90;;;;;;5117216;27;20014;-79
2021/12/21 12:52:05;;;;;;;;;;;7.00;70.90;;;;;;5105679;27;20383;-80
2021/12/21 12:54:42;;;;;;;;;;;6.90;70.00;;;;;;5121871;27;19976;-80
2021/12/21 12:57:09;;;;;;;;;;;7.10;71.40;;;;;;5127222;27;20418;-80
2021/12/21 12:59:34;;;;;;;;;;;7.30;71.60;;;;;;5118385;27;19926;-81
2021/12/21 13:02:06;;;;;;;;;;;7.50;71.50;;;;;;5102243;27;19927;-79
2021/12/21 13:04:33;;;;;;;;;;;7.50;69.40;;;;;;5103764;27;19923;-80
2021/12/21 13:06:58;;;;;;;;;;;7.60;74.70;;;;;;5114734;27;19930;-81
2021/12/21 13:09:24;;;;;;;;;;;7.60;68.90;;;;;;5105566;27;19927;-80
2021/12/21 13:11:50;;;;;;;;;;;7.50;71.50;;;;;;5102955;27;19915;-80
2021/12/21 13:14:16;;;;;;;;;;;7.60;70.60;;;;;;5105198;27;19915;-80
2021/12/21 13:16:42;;;;;;;;;;;7.50;68.40;;;;;;5101584;27;19916;-81
2021/12/21 13:19:09;;;;;;;;;;;7.70;69.30;;;;;;5084389;27;20264;-80
2021/12/21 13:21:36;;;;;;;;;;;7.80;69.40;;;;;;5121678;27;19930;-81
2021/12/21 13:24:09;;;;;;;;;;;8.10;72.80;;;;;;5103653;27;19923;-79
2021/12/21 13:26:34;;;;;;;;;;;8.00;70.10;;;;;;5117186;27;20864;-79
2021/12/21 13:29:00;;;;;;;;;;;8.10;67.90;;;;;;5101630;27;20361;-80
2021/12/21 13:31:26;;;;;;;;;;;8.20;67.60;;;;;;5102601;27;20295;-82
2021/12/21 13:33:53;;;;;;;;;;;8.30;64.70;;;;;;5101566;27;19940;-81
2021/12/21 13:36:29;;;;;;;;;;;8.50;65.90;;;;;;5119659;27;19923;-80
2021/12/21 13:38:56;;;;;;;;;;;8.60;65.80;;;;;;5119089;27;20431;-81
2021/12/21 13:41:22;;;;;;;;;;;8.70;65.60;;;;;;5117585;27;19945;-81
2021/12/21 13:43:52;;;;;;;;;;;8.80;70.00;;;;;;5085348;27;19919;-81
2021/12/21 13:46:18;;;;;;;;;;;8.10;64.20;;;;;;5118232;27;20321;-82
2021/12/21 13:48:49;;;;;;;;;;;8.30;68.40;;;;;;5096725;27;20051;-80
2021/12/21 13:51:16;;;;;;;;;;;8.40;67.20;;;;;;5103544;28;19922;-81
2021/12/21 13:53:46;;;;;;;;;;;8.50;64.80;;;;;;5117545;27;19937;-81
2021/12/21 13:56:23;;;;;;;;;;;8.60;65.80;;;;;;5101572;27;20263;-82
2021/12/21 13:58:54;;;;;;;;;;;8.60;68.30;;;;;;5114475;27;19998;-81
2021/12/21 14:01:26;;;;;;;;;;;8.50;64.90;;;;;;5101889;27;19920;-80
2021/12/21 14:03:55;;;;;;;;;;;8.50;65.40;;;;;;5118532;27;19916;-81
2021/12/21 14:06:23;;;;;;;;;;;8.50;64.40;;;;;;5100434;27;19930;-82
2021/12/21 14:08:51;;;;;;;;;;;8.50;65.10;;;;;;5099444;27;19919;-80
2021/12/21 14:11:17;;;;;;;;;;;8.20;64.30;;;;;;5117983;27;19922;-83
2021/12/21 14:13:43;;;;;;;;;;;7.90;66.30;;;;;;5100691;27;19929;-82
2021/12/21 14:16:14;;;;;;;;;;;7.70;65.80;;;;;;5118910;27;19972;-82
2021/12/21 14:18:41;;;;;;;;;;;7.30;66.80;;;;;;5099802;27;19925;-82
2021/12/21 14:21:12;;;;;;;;;;;7.10;66.80;;;;;;5118700;27;19923;-80
2021/12/21 14:23:41;;;;;;;;;;;6.70;67.80;;;;;;5099994;27;20091;-81
2021/12/21 14:26:06;;;;;;;;;;;6.40;70.50;;;;;;5117588;27;19966;-81
2021/12/21 14:28:32;;;;;;;;;;;6.10;72.10;;;;;;5103581;27;20002;-80
2021/12/21 14:31:04;;;;;;;;;;;5.70;72.00;;;;;;5086769;27;19923;-81
2021/12/21 14:33:46;;;;;;;;;;;5.40;73.00;;;;;;5083905;27;19923;-80
2021/12/21 14:36:15;;;;;;;;;;;5.10;74.30;;;;;;5100010;28;20006;-81
2021/12/21 14:38:51;;;;;;;;;;;4.90;75.00;;;;;;5100153;27;19916;-80
2021/12/21 14:41:21;;;;;;;;;;;4.70;75.30;;;;;;5115312;27;19923;-82
2021/12/21 14:43:46;;;;;;;;;;;4.50;75.80;;;;;;5112769;27;19923;-80
2021/12/21 14:46:19;;;;;;;;;;;4.30;76.30;;;;;;5099084;27;19926;-81
2021/12/21 14:48:55;;;;;;;;;;;4.20;77.10;;;;;;5112572;27;19927;-80
2021/12/21 14:51:20;;;;;;;;;;;4.10;77.20;;;;;;5116721;27;20002;-80
2021/12/21 14:53:55;;;;;;;;;;;4.00;78.00;;;;;;5102463;27;20040;-79
2021/12/21 14:56:28;;;;;;;;;;;3.90;78.30;;;;;;5116228;27;19923;-81
2021/12/21 14:59:01;;;;;;;;;;;3.80;78.00;;;;;;5115388;27;19967;-79
2021/12/21 15:01:54;;;;;;;;;;;3.60;78.90;;;;;;5118375;27;19919;-78
2021/12/21 15:04:24;;;;;;;;;;;3.50;79.90;;;;;;5116880;27;20266;-79
2021/12/21 15:06:51;;;;;;;;;;;3.50;80.20;;;;;;5114306;27;19972;-80
2021/12/21 15:09:17;;;;;;;;;;;3.40;80.30;;;;;;5103691;27;19919;-79